Terminal Aerodrome Forecast
Issued by NWS Sioux Falls, SD

Home | Current Version | Previous Version | Graphics & Text | Print | Product List | Glossary Off
Versions: 1 2 3 4 5 6 7 8 9 10 11 12 13 14 15 16 17 18

753
FTUS43 KFSD 071720
TAFFSD
TAF
KFSD 071720Z 0718/0818 30023G34KT P6SM BKN040
      TEMPO 0719/0723 2SM -SHSN BLSN BKN025
     FM072300 32025G37KT P6SM BKN040
      TEMPO 0723/0803 2SM -SHSN BLSN BKN025
     FM081400 33025G37KT P6SM OVC030=

USA.gov is the U.S. government's official web portal to all federal, state and local government web resources and services.